createdAt,value
2023-04-21T00:00:21.789Z,29.03
2023-04-21T00:02:51.312Z,33.07
2023-04-21T00:05:19.574Z,29.57
2023-04-21T00:07:47.547Z,29.67
2023-04-21T00:10:15.567Z,28.80
2023-04-21T00:12:43.597Z,31.43
2023-04-21T00:15:12.686Z,29.93
2023-04-21T00:17:40.696Z,31.57
2023-04-21T00:20:11.589Z,31.47
2023-04-21T00:22:39.593Z,29.13
2023-04-21T00:25:08.442Z,31.40
2023-04-21T00:27:36.371Z,32.10
2023-04-21T00:30:06.922Z,30.80
2023-04-21T00:32:35.052Z,34.10
2023-04-21T00:35:03.182Z,31.80
2023-04-21T00:37:32.569Z,35.97
2023-04-21T00:40:00.501Z,33.60
2023-04-21T00:42:28.430Z,32.23
2023-04-21T00:44:56.384Z,31.93
2023-04-21T00:47:25.539Z,31.90
2023-04-21T00:49:53.574Z,31.77
2023-04-21T00:52:21.661Z,31.10
2023-04-21T00:54:51.117Z,32.20
2023-04-21T00:57:19.173Z,32.80
2023-04-21T00:59:49.753Z,34.30
2023-04-21T01:02:19.747Z,32.33
2023-04-21T01:04:49.376Z,32.23
2023-04-21T01:07:17.353Z,33.80
2023-04-21T01:09:45.269Z,32.20
2023-04-21T01:12:14.619Z,33.27
2023-04-21T01:14:42.826Z,33.00
2023-04-21T01:17:11.942Z,33.50
2023-04-21T01:19:42.587Z,32.67
2023-04-21T01:22:13.026Z,31.97
2023-04-21T01:24:42.989Z,33.70
2023-04-21T01:27:14.420Z,33.73
2023-04-21T01:29:43.903Z,35.13
2023-04-21T01:32:13.941Z,34.47
2023-04-21T01:34:42.707Z,34.73
2023-04-21T01:37:16.427Z,33.83
2023-04-21T01:39:47.113Z,34.73
2023-04-21T01:42:15.123Z,35.90
2023-04-21T01:44:43.379Z,35.43
2023-04-21T01:47:12.258Z,38.33
2023-04-21T01:49:41.010Z,38.53
2023-04-21T01:52:09.105Z,39.50
2023-04-21T01:54:38.603Z,36.70
2023-04-21T01:57:07.149Z,35.23
2023-04-21T01:59:35.188Z,41.17
2023-04-21T02:02:04.111Z,37.23
2023-04-21T02:04:34.907Z,38.67
2023-04-21T02:07:03.162Z,40.50
2023-04-21T02:09:31.170Z,39.70
2023-04-21T02:12:00.524Z,39.40
2023-04-21T02:14:28.546Z,41.30
2023-04-21T02:16:57.034Z,36.87
2023-04-21T02:19:25.200Z,39.53
2023-04-21T02:21:55.768Z,37.03
2023-04-21T02:24:26.227Z,39.67
2023-04-21T02:27:02.109Z,40.33
2023-04-21T02:29:30.093Z,39.60
2023-04-21T02:32:05.177Z,39.37
2023-04-21T02:34:42.337Z,36.47
2023-04-21T02:37:10.333Z,40.60
2023-04-21T02:39:38.413Z,36.83
2023-04-21T02:42:08.356Z,38.50
2023-04-21T02:44:38.469Z,41.67
2023-04-21T02:47:06.625Z,38.63
2023-04-21T02:49:34.615Z,38.73
2023-04-21T02:52:02.550Z,42.13
2023-04-21T02:54:30.528Z,39.23
2023-04-21T02:56:58.546Z,40.47
2023-04-21T02:59:28.018Z,43.83
2023-04-21T03:01:55.984Z,38.17
2023-04-21T03:04:25.454Z,39.03
2023-04-21T03:06:53.959Z,41.20
2023-04-21T03:09:22.035Z,39.83
2023-04-21T03:11:50.105Z,39.50
2023-04-21T03:14:19.940Z,39.27
2023-04-21T03:16:49.356Z,40.93
2023-04-21T03:19:17.543Z,38.43
2023-04-21T03:21:46.379Z,39.73
2023-04-21T03:24:14.476Z,42.20
2023-04-21T03:26:42.600Z,37.40
2023-04-21T03:29:10.643Z,40.37
2023-04-21T03:31:38.691Z,41.00
2023-04-21T03:34:08.087Z,40.67
2023-04-21T03:36:36.356Z,40.47
2023-04-21T03:39:13.198Z,39.27
2023-04-21T03:41:47.077Z,41.27
2023-04-21T03:44:15.070Z,40.00
2023-04-21T03:46:43.053Z,39.93
2023-04-21T03:49:12.419Z,41.37
2023-04-21T03:51:40.519Z,39.17
2023-04-21T03:54:08.596Z,38.40
2023-04-21T03:56:36.555Z,38.80
2023-04-21T03:59:04.524Z,42.07
2023-04-21T04:01:33.265Z,44.70
2023-04-21T04:04:01.468Z,44.10
2023-04-21T04:06:32.124Z,41.73
2023-04-21T04:09:02.469Z,41.43
2023-04-21T04:11:30.555Z,45.63
2023-04-21T04:13:58.619Z,41.80
2023-04-21T04:16:28.900Z,39.10
2023-04-21T04:18:57.344Z,40.33
2023-04-21T04:21:25.330Z,39.33
2023-04-21T04:23:54.731Z,44.27
2023-04-21T04:26:24.837Z,38.53
2023-04-21T04:28:53.109Z,44.53
2023-04-21T04:31:21.534Z,40.30
2023-04-21T04:33:49.737Z,45.50
2023-04-21T04:36:17.722Z,42.00
2023-04-21T04:38:45.959Z,43.60
2023-04-21T04:41:15.850Z,39.17
2023-04-21T04:43:44.142Z,43.93
2023-04-21T04:46:13.015Z,42.73
2023-04-21T04:48:41.367Z,43.80
2023-04-21T04:51:09.411Z,40.37
2023-04-21T04:53:37.482Z,45.53
2023-04-21T04:56:05.721Z,42.70
2023-04-21T04:58:35.138Z,47.50
2023-04-21T05:01:12.959Z,41.20
2023-04-21T05:03:41.183Z,48.23
2023-04-21T05:06:09.798Z,48.00
2023-04-21T05:08:37.918Z,45.50
2023-04-21T05:11:06.766Z,49.60
2023-04-21T05:13:39.113Z,47.67
2023-04-21T05:16:10.114Z,49.10
2023-04-21T05:18:38.295Z,51.87
2023-04-21T05:21:06.524Z,48.10
2023-04-21T05:23:34.497Z,43.93
2023-04-21T05:26:04.543Z,45.07
2023-04-21T05:28:33.179Z,43.83
2023-04-21T05:31:02.655Z,44.73
2023-04-21T05:33:31.822Z,44.37
2023-04-21T05:36:00.228Z,42.57
2023-04-21T05:38:28.269Z,45.83
2023-04-21T05:40:56.610Z,49.90
2023-04-21T05:43:24.568Z,44.80
2023-04-21T05:45:52.814Z,43.70
2023-04-21T05:48:23.507Z,45.33
2023-04-21T05:50:51.679Z,43.70
2023-04-21T05:53:19.690Z,47.03
2023-04-21T05:55:47.724Z,42.37
2023-04-21T05:58:15.664Z,41.10
2023-04-21T06:00:43.748Z,46.90
2023-04-21T06:03:11.882Z,42.47
2023-04-21T06:05:41.383Z,45.53
2023-04-21T06:08:09.486Z,45.33
2023-04-21T06:10:37.566Z,43.13
2023-04-21T06:13:05.627Z,42.10
2023-04-21T06:15:33.658Z,47.40
2023-04-21T06:18:01.642Z,41.97
2023-04-21T06:20:29.699Z,41.50
2023-04-21T06:22:59.116Z,42.53
2023-04-21T06:25:27.119Z,40.57
2023-04-21T06:27:55.162Z,39.40
2023-04-21T06:30:23.228Z,36.60
2023-04-21T06:32:51.218Z,35.50
2023-04-21T06:35:20.440Z,34.53
2023-04-21T06:37:48.485Z,35.00
2023-04-21T06:40:18.045Z,30.10
2023-04-21T06:42:46.150Z,30.70
2023-04-21T06:45:14.234Z,29.90
2023-04-21T06:47:42.274Z,27.30
2023-04-21T06:50:11.251Z,28.17
2023-04-21T06:52:39.286Z,26.07
2023-04-21T06:55:08.470Z,26.80
2023-04-21T06:57:38.753Z,25.80
2023-04-21T07:00:09.730Z,25.50
2023-04-21T07:02:38.069Z,26.83
2023-04-21T07:05:06.795Z,26.80
2023-04-21T07:07:34.820Z,25.07
2023-04-21T07:10:02.894Z,25.97
2023-04-21T07:12:31.144Z,24.10
2023-04-21T07:15:00.666Z,26.10
2023-04-21T07:17:28.930Z,23.80
2023-04-21T07:19:57.284Z,23.17
2023-04-21T07:22:25.386Z,22.93
2023-04-21T07:24:53.314Z,22.93
2023-04-21T07:27:21.271Z,21.13
2023-04-21T07:29:49.355Z,22.00
2023-04-21T07:32:18.868Z,22.43
2023-04-21T07:34:48.410Z,21.60
2023-04-21T07:37:17.123Z,22.40
2023-04-21T07:39:45.292Z,22.57
2023-04-21T07:42:13.514Z,20.33
2023-04-21T07:44:41.503Z,18.87
2023-04-21T07:47:09.466Z,19.23
2023-04-21T07:49:38.876Z,20.00
2023-04-21T07:52:07.479Z,20.50
2023-04-21T07:54:35.648Z,19.87
2023-04-21T07:57:03.783Z,18.43
2023-04-21T07:59:31.882Z,18.77
2023-04-21T08:01:59.948Z,17.17
2023-04-21T08:04:28.664Z,19.97
2023-04-21T08:06:59.122Z,19.57
2023-04-21T08:09:27.630Z,16.90
2023-04-21T08:11:57.202Z,17.03
2023-04-21T08:14:26.980Z,17.70
2023-04-21T08:16:57.086Z,18.27
2023-04-21T08:19:25.635Z,16.37
2023-04-21T08:21:53.607Z,17.43
2023-04-21T08:24:23.146Z,16.00
2023-04-21T08:26:51.454Z,16.50
2023-04-21T08:29:19.521Z,15.77
2023-04-21T08:31:47.670Z,14.90
2023-04-21T08:34:15.905Z,13.27
2023-04-21T08:36:45.055Z,14.10
2023-04-21T08:39:13.388Z,14.60
2023-04-21T08:41:42.859Z,14.60
2023-04-21T08:44:12.052Z,15.00
2023-04-21T08:46:40.534Z,14.70
2023-04-21T08:49:10.890Z,13.87
2023-04-21T08:51:38.973Z,13.87
2023-04-21T08:54:07.150Z,14.60
2023-04-21T08:56:35.218Z,14.03
2023-04-21T08:59:04.584Z,13.00
2023-04-21T09:01:32.783Z,13.03
2023-04-21T09:04:17.056Z,14.07
2023-04-21T09:06:46.430Z,13.70
2023-04-21T09:09:14.677Z,13.13
2023-04-21T09:11:42.760Z,13.40
2023-04-21T09:14:12.580Z,13.87
2023-04-21T09:16:40.742Z,13.80
2023-04-21T09:19:16.442Z,12.40
2023-04-21T09:21:45.438Z,12.73
2023-04-21T09:24:14.218Z,12.83
2023-04-21T09:26:43.804Z,13.47
2023-04-21T09:29:13.224Z,12.73
2023-04-21T09:31:41.440Z,13.27
2023-04-21T09:34:19.727Z,12.70
2023-04-21T09:36:48.534Z,12.53
2023-04-21T09:41:48.075Z,12.57
2023-04-21T09:44:18.485Z,13.73
2023-04-21T09:46:49.736Z,14.83
2023-04-21T09:49:18.886Z,12.30
2023-04-21T09:54:28.974Z,13.50
2023-04-21T09:57:01.742Z,14.47
2023-04-21T09:59:34.156Z,12.90
2023-04-21T10:02:02.718Z,13.83
2023-04-21T10:04:33.354Z,12.87
2023-04-21T10:07:02.039Z,13.10
2023-04-21T10:09:34.744Z,16.97
2023-04-21T10:12:04.335Z,12.30
2023-04-21T10:14:34.121Z,12.80
2023-04-21T10:17:05.905Z,12.70
2023-04-21T10:19:39.799Z,12.30
2023-04-21T10:22:09.602Z,11.03
2023-04-21T10:24:41.637Z,12.50
2023-04-21T10:27:11.376Z,11.70
2023-04-21T10:29:55.510Z,11.87
2023-04-21T10:32:42.432Z,11.67
2023-04-21T10:35:11.547Z,12.33
2023-04-21T10:37:40.098Z,13.07
2023-04-21T10:40:11.059Z,13.07
2023-04-21T10:42:39.097Z,12.60
2023-04-21T10:45:13.397Z,11.77
2023-04-21T10:47:51.564Z,9.57
2023-04-21T10:50:25.472Z,10.70
2023-04-21T10:52:59.280Z,11.13
2023-04-21T10:55:28.936Z,9.77
2023-04-21T10:57:59.663Z,9.37
2023-04-21T11:00:29.403Z,9.93
2023-04-21T11:02:59.309Z,9.53
2023-04-21T11:05:34.657Z,9.20
2023-04-21T11:08:11.367Z,9.83
2023-04-21T11:10:51.410Z,8.20
2023-04-21T11:13:22.324Z,8.57
2023-04-21T11:16:02.491Z,8.20
2023-04-21T11:18:44.005Z,7.10
2023-04-21T11:21:15.999Z,8.57
2023-04-21T11:23:50.055Z,6.90
2023-04-21T11:26:19.298Z,9.40
2023-04-21T11:28:49.887Z,11.07
2023-04-21T11:31:19.465Z,8.33
2023-04-21T11:33:47.540Z,8.23
2023-04-21T11:36:16.313Z,7.87
2023-04-21T11:38:44.351Z,7.90
2023-04-21T11:41:12.500Z,8.10
2023-04-21T11:43:40.651Z,7.13
2023-04-21T11:46:15.446Z,6.20
2023-04-21T11:48:45.821Z,6.23
2023-04-21T11:51:20.552Z,6.87
2023-04-21T11:53:50.284Z,7.10
2023-04-21T11:56:19.990Z,6.17
2023-04-21T11:58:48.043Z,6.03
2023-04-21T12:01:17.221Z,6.90
2023-04-21T12:03:54.030Z,5.90
2023-04-21T12:06:23.634Z,5.43
2023-04-21T12:08:57.669Z,5.20
2023-04-21T12:11:26.282Z,6.10
2023-04-21T12:13:54.408Z,5.30
2023-04-21T12:16:22.541Z,6.23
2023-04-21T12:18:50.758Z,5.17
2023-04-21T12:21:20.378Z,5.00
2023-04-21T12:23:48.408Z,4.10
2023-04-21T12:26:16.499Z,4.57
2023-04-21T12:28:44.599Z,6.13
2023-04-21T12:31:12.671Z,4.60
2023-04-21T12:33:41.119Z,4.10
2023-04-21T12:36:09.666Z,5.57
2023-04-21T12:38:39.752Z,3.50
2023-04-21T12:41:07.921Z,3.63
2023-04-21T12:43:35.943Z,4.33
2023-04-21T12:46:04.008Z,6.60
2023-04-21T12:48:32.127Z,4.43
2023-04-21T12:51:00.311Z,4.80
2023-04-21T12:53:30.501Z,4.90
2023-04-21T12:56:04.737Z,4.60
2023-04-21T12:58:33.740Z,4.43
2023-04-21T13:01:01.825Z,4.17
2023-04-21T13:03:30.176Z,4.53
2023-04-21T13:05:58.512Z,4.90
2023-04-21T13:08:26.798Z,4.27
2023-04-21T13:10:57.750Z,5.07
2023-04-21T13:13:27.577Z,4.70
2023-04-21T13:15:55.623Z,5.47
2023-04-21T13:18:23.634Z,5.17
2023-04-21T13:20:51.641Z,5.27
2023-04-21T13:23:19.793Z,5.97
2023-04-21T13:25:47.883Z,5.57
2023-04-21T13:28:16.960Z,5.00
2023-04-21T13:30:46.699Z,5.63
2023-04-21T13:33:14.918Z,6.43
2023-04-21T13:35:43.070Z,4.73
2023-04-21T13:38:13.811Z,5.37
2023-04-21T13:40:42.435Z,5.73
2023-04-21T13:43:10.542Z,5.77
2023-04-21T13:45:38.991Z,5.03
2023-04-21T13:48:08.400Z,8.07
2023-04-21T13:50:36.486Z,8.70
2023-04-21T13:53:04.649Z,7.40
2023-04-21T13:55:32.868Z,7.13
2023-04-21T13:58:01.440Z,7.30
2023-04-21T14:00:29.513Z,7.43
2023-04-21T14:02:57.844Z,8.97
2023-04-21T14:05:27.577Z,7.27
2023-04-21T14:07:55.913Z,8.67
2023-04-21T14:10:24.581Z,7.23
2023-04-21T14:12:52.656Z,6.80
2023-04-21T14:15:20.876Z,7.17
2023-04-21T14:17:49.163Z,6.07
2023-04-21T14:20:17.256Z,6.17
2023-04-21T14:22:46.673Z,5.70
2023-04-21T14:25:14.920Z,7.53
2023-04-21T14:27:42.924Z,6.20
2023-04-21T14:30:11.996Z,6.80
2023-04-21T14:32:45.199Z,5.80
2023-04-21T14:35:13.815Z,6.50
2023-04-21T14:37:42.038Z,6.80
2023-04-21T14:40:12.176Z,5.90
2023-04-21T14:42:41.513Z,6.10
2023-04-21T14:45:10.689Z,6.17
2023-04-21T14:47:39.115Z,5.03
2023-04-21T14:50:08.336Z,5.20
2023-04-21T14:52:36.425Z,5.90
2023-04-21T14:55:05.035Z,5.53
2023-04-21T14:57:34.562Z,5.20
2023-04-21T15:00:03.077Z,4.80
2023-04-21T15:02:31.360Z,5.10
2023-04-21T15:04:59.813Z,5.07
2023-04-21T15:07:27.891Z,5.50
2023-04-21T15:09:55.928Z,5.57
2023-04-21T15:12:24.020Z,5.20
2023-04-21T15:14:53.551Z,5.03
2023-04-21T15:17:21.740Z,4.67
2023-04-21T15:19:49.929Z,5.00
2023-04-21T15:22:18.014Z,4.23
2023-04-21T15:24:46.684Z,4.87
2023-04-21T15:27:14.714Z,4.63
2023-04-21T15:29:42.823Z,4.97
2023-04-21T15:32:12.240Z,4.53
2023-04-21T15:34:40.268Z,4.90
2023-04-21T15:37:08.316Z,4.70
2023-04-21T15:39:36.525Z,5.33
2023-04-21T15:42:05.633Z,4.47
2023-04-21T15:44:34.845Z,4.10
2023-04-21T15:47:03.104Z,4.70
2023-04-21T15:49:32.608Z,5.00
2023-04-21T15:52:00.769Z,5.20
2023-04-21T15:54:28.792Z,4.97
2023-04-21T15:56:57.618Z,4.80
2023-04-21T15:59:26.298Z,4.30
2023-04-21T16:01:54.571Z,4.80
2023-04-21T16:04:23.546Z,4.60
2023-04-21T16:06:52.992Z,4.20
2023-04-21T16:09:21.804Z,3.60
2023-04-21T16:11:50.888Z,3.60
2023-04-21T16:14:19.160Z,5.37
2023-04-21T16:16:47.428Z,4.13
2023-04-21T16:19:16.476Z,3.80
2023-04-21T16:21:44.665Z,4.83
2023-04-21T16:24:16.061Z,4.17
2023-04-21T16:26:44.090Z,3.93
2023-04-21T16:29:12.222Z,4.07
2023-04-21T16:31:40.620Z,4.10
2023-04-21T16:34:08.799Z,3.50
2023-04-21T16:36:37.114Z,3.80
2023-04-21T16:39:06.559Z,3.33
2023-04-21T16:41:36.117Z,3.33
2023-04-21T16:44:04.129Z,3.53
2023-04-21T16:46:32.506Z,4.90
2023-04-21T16:49:00.709Z,3.97
2023-04-21T16:51:29.002Z,3.13
2023-04-21T16:53:57.533Z,3.47
2023-04-21T16:56:25.572Z,4.20
2023-04-21T16:58:55.117Z,3.43
2023-04-21T17:01:23.533Z,4.57
2023-04-21T17:03:52.331Z,3.40
2023-04-21T17:06:21.827Z,3.83
2023-04-21T17:08:49.800Z,3.30
2023-04-21T17:11:17.813Z,5.00
2023-04-21T17:13:45.886Z,3.13
2023-04-21T17:16:15.979Z,3.63
2023-04-21T17:18:44.106Z,3.43
2023-04-21T17:21:12.652Z,3.67
2023-04-21T17:23:40.915Z,3.93
2023-04-21T17:26:11.600Z,3.80
2023-04-21T17:28:41.488Z,4.63
2023-04-21T17:31:15.861Z,4.37
2023-04-21T17:33:46.469Z,4.27
2023-04-21T17:36:16.706Z,3.77
2023-04-21T17:38:44.688Z,4.17
2023-04-21T17:41:12.753Z,4.73
2023-04-21T17:43:40.859Z,4.17
2023-04-21T17:46:09.025Z,3.97
2023-04-21T17:48:37.091Z,4.73
2023-04-21T17:51:06.492Z,6.60
2023-04-21T17:53:34.556Z,6.27
2023-04-21T17:56:02.613Z,6.20
2023-04-21T17:58:30.869Z,5.00
2023-04-21T18:00:59.274Z,4.60
2023-04-21T18:03:27.890Z,5.37
2023-04-21T18:05:56.386Z,4.43
2023-04-21T18:08:26.411Z,4.90
2023-04-21T18:10:55.462Z,5.40
2023-04-21T18:13:23.436Z,4.33
2023-04-21T18:15:51.817Z,4.20
2023-04-21T18:18:20.212Z,4.83
2023-04-21T18:20:48.298Z,6.43
2023-04-21T18:23:16.344Z,6.23
2023-04-21T18:25:45.902Z,4.93
2023-04-21T18:28:14.397Z,5.00
2023-04-21T18:30:42.532Z,4.57
2023-04-21T18:33:11.490Z,4.20
2023-04-21T18:35:41.709Z,5.63
2023-04-21T18:38:11.615Z,2.50
2023-04-21T18:40:40.770Z,1.77
2023-04-21T18:43:10.970Z,1.50
2023-04-21T18:45:39.534Z,1.77
2023-04-21T18:48:07.624Z,1.60
2023-04-21T18:50:40.181Z,2.23
2023-04-21T18:53:09.433Z,2.93
2023-04-21T18:55:38.632Z,2.37
2023-04-21T18:58:07.020Z,2.87
2023-04-21T19:00:38.906Z,3.50
2023-04-21T19:03:07.748Z,3.23
2023-04-21T19:05:37.011Z,3.23
2023-04-21T19:08:05.671Z,2.33
2023-04-21T19:10:35.508Z,2.40
2023-04-21T19:13:03.677Z,2.53
2023-04-21T19:15:31.945Z,2.73
2023-04-21T19:18:01.627Z,2.70
2023-04-21T19:20:32.299Z,3.30
2023-04-21T19:23:00.451Z,2.80
2023-04-21T19:25:28.516Z,3.23
2023-04-21T19:27:56.541Z,2.90
2023-04-21T19:30:24.896Z,3.20
2023-04-21T19:32:53.194Z,2.87
2023-04-21T19:35:22.700Z,3.27
2023-04-21T19:37:51.002Z,4.17
2023-04-21T19:40:19.899Z,3.07
2023-04-21T19:42:47.959Z,4.03
2023-04-21T19:45:16.589Z,3.83
2023-04-21T19:47:44.744Z,3.53
2023-04-21T19:50:13.330Z,4.43
2023-04-21T19:52:42.979Z,3.43
2023-04-21T19:55:11.437Z,3.87
2023-04-21T19:57:39.553Z,3.47
2023-04-21T20:00:10.787Z,5.80
2023-04-21T20:02:42.323Z,4.00
2023-04-21T20:05:10.840Z,5.33
2023-04-21T20:07:39.601Z,3.97
2023-04-21T20:10:09.620Z,4.60
2023-04-21T20:12:37.934Z,4.50
2023-04-21T20:15:06.982Z,6.53
2023-04-21T20:17:35.018Z,4.40
2023-04-21T20:20:05.242Z,3.87
2023-04-21T20:22:33.234Z,4.03
2023-04-21T20:25:01.222Z,4.00
2023-04-21T20:27:30.933Z,6.37
2023-04-21T20:29:59.161Z,4.47
2023-04-21T20:32:27.331Z,4.87
2023-04-21T20:34:55.317Z,4.37
2023-04-21T20:37:23.984Z,5.40
2023-04-21T20:39:54.260Z,6.87
2023-04-21T20:42:22.442Z,6.33
2023-04-21T20:44:51.792Z,7.87
2023-04-21T20:47:23.855Z,5.50
2023-04-21T20:49:51.948Z,5.57
2023-04-21T20:52:20.047Z,5.53
2023-04-21T20:54:52.787Z,5.93
2023-04-21T20:57:20.911Z,5.53
2023-04-21T20:59:52.926Z,5.23
2023-04-21T21:02:21.008Z,6.53
2023-04-21T21:04:49.218Z,5.00
2023-04-21T21:07:17.442Z,4.87
2023-04-21T21:09:45.523Z,6.10
2023-04-21T21:12:13.538Z,5.33
2023-04-21T21:14:41.737Z,6.57
2023-04-21T21:17:12.869Z,5.53
2023-04-21T21:19:41.658Z,5.50
2023-04-21T21:22:10.114Z,5.23
2023-04-21T21:24:38.289Z,6.67
2023-04-21T21:27:07.778Z,5.77
2023-04-21T21:29:35.954Z,5.27
2023-04-21T21:32:04.237Z,5.83
2023-04-21T21:34:33.654Z,5.33
2023-04-21T21:37:01.731Z,5.10
2023-04-21T21:39:29.739Z,5.13
2023-04-21T21:41:58.366Z,5.23
2023-04-21T21:44:26.437Z,5.27
2023-04-21T21:46:54.392Z,5.40
2023-04-21T21:49:22.421Z,5.57
2023-04-21T21:51:52.948Z,5.50
2023-04-21T21:54:20.926Z,5.80
2023-04-21T21:56:49.175Z,5.57
2023-04-21T21:59:17.548Z,5.53
2023-04-21T22:01:45.596Z,5.57
2023-04-21T22:04:13.693Z,5.70
2023-04-21T22:06:42.366Z,5.47
2023-04-21T22:09:11.748Z,6.63
2023-04-21T22:11:39.749Z,6.13
2023-04-21T22:14:21.757Z,5.77
2023-04-21T22:16:50.729Z,7.13
2023-04-21T22:19:19.156Z,5.37
2023-04-21T22:21:47.323Z,5.63
2023-04-21T22:24:16.696Z,5.70
2023-04-21T22:26:44.866Z,8.60
2023-04-21T22:29:12.863Z,6.80
2023-04-21T22:31:40.909Z,5.73
2023-04-21T22:34:08.961Z,4.90
2023-04-21T22:36:37.233Z,5.87
2023-04-21T22:39:05.413Z,5.33
2023-04-21T22:41:34.837Z,5.03
2023-04-21T22:44:02.840Z,6.70
2023-04-21T22:46:33.483Z,4.90
2023-04-21T22:49:02.526Z,5.87
2023-04-21T22:51:32.266Z,5.93
2023-04-21T22:54:00.910Z,5.87
2023-04-21T22:56:29.136Z,5.10
2023-04-21T22:58:58.552Z,5.97
2023-04-21T23:01:26.630Z,7.17
2023-04-21T23:04:03.105Z,5.47
2023-04-21T23:06:32.801Z,6.03
2023-04-21T23:09:00.856Z,4.90
2023-04-21T23:11:28.863Z,6.00
2023-04-21T23:13:58.413Z,5.50
2023-04-21T23:16:27.083Z,5.67
2023-04-21T23:18:55.167Z,6.57
2023-04-21T23:21:23.270Z,6.60
2023-04-21T23:23:51.293Z,5.97
2023-04-21T23:26:19.846Z,6.50
2023-04-21T23:28:47.874Z,5.73
2023-04-21T23:31:17.258Z,7.97
2023-04-21T23:33:45.594Z,5.63
2023-04-21T23:36:13.667Z,6.30
2023-04-21T23:38:41.962Z,7.90
2023-04-21T23:41:10.129Z,6.03
2023-04-21T23:43:38.194Z,7.00
2023-04-21T23:46:06.336Z,6.43
2023-04-21T23:48:35.724Z,5.73
2023-04-21T23:51:05.782Z,5.87
2023-04-21T23:53:34.280Z,6.57
2023-04-21T23:56:02.435Z,6.80
2023-04-21T23:58:31.372Z,6.17
